createdAt,value
2022-08-14T00:01:39.402Z,100521.25
2022-08-14T00:04:45.057Z,100520.25
2022-08-14T00:07:49.171Z,100506.69
2022-08-14T00:10:53.346Z,100507.69
2022-08-14T00:13:55.961Z,100505.84
2022-08-14T00:17:01.233Z,100506.00
2022-08-14T00:20:04.975Z,100502.72
2022-08-14T00:23:16.218Z,100499.91
2022-08-14T00:26:23.268Z,100498.66
2022-08-14T00:29:27.291Z,100497.22
2022-08-14T00:32:53.229Z,100496.66
2022-08-14T00:36:36.954Z,100496.81
2022-08-14T00:39:18.039Z,100492.44
2022-08-14T00:42:55.692Z,100485.66
2022-08-14T00:45:52.763Z,100486.50
2022-08-14T00:48:58.019Z,100492.34
2022-08-14T00:52:00.918Z,100490.22
2022-08-14T00:55:06.821Z,100485.56
2022-08-14T00:58:32.567Z,100488.22
2022-08-14T01:01:36.966Z,100493.31
2022-08-14T01:04:53.740Z,100491.75
2022-08-14T01:07:58.493Z,100479.19
2022-08-14T01:11:01.161Z,100480.50
2022-08-14T01:14:25.863Z,100473.28
2022-08-14T01:17:49.241Z,100479.78
2022-08-14T01:21:08.874Z,100479.78
2022-08-14T01:24:24.792Z,100486.16
2022-08-14T01:27:52.479Z,100474.28
2022-08-14T01:30:58.840Z,100475.81
2022-08-14T01:35:20.997Z,100478.09
2022-08-14T01:37:25.686Z,100471.19
2022-08-14T01:40:36.634Z,100464.97
2022-08-14T01:43:56.022Z,100475.50
2022-08-14T01:47:01.818Z,100467.44
2022-08-14T01:50:10.240Z,100470.41
2022-08-14T01:53:12.797Z,100475.22
2022-08-14T01:56:19.289Z,100479.72
2022-08-14T01:59:24.269Z,100483.81
2022-08-14T02:02:36.968Z,100479.19
2022-08-14T02:05:40.253Z,100472.28
2022-08-14T02:08:53.469Z,100464.53
2022-08-14T02:11:59.134Z,100472.03
2022-08-14T02:15:01.892Z,100473.44
2022-08-14T02:18:04.678Z,100478.22
2022-08-14T02:21:07.547Z,100471.53
2022-08-14T02:24:38.703Z,100477.47
2022-08-14T02:28:25.799Z,100469.00
2022-08-14T02:30:56.615Z,100473.50
2022-08-14T02:34:00.678Z,100474.25
2022-08-14T02:37:06.911Z,100463.19
2022-08-14T02:40:10.227Z,100457.66
2022-08-14T02:43:13.990Z,100460.59
2022-08-14T02:46:20.386Z,100459.72
2022-08-14T02:49:33.082Z,100450.41
2022-08-14T02:52:57.103Z,100448.84
2022-08-14T02:56:03.110Z,100443.06
2022-08-14T02:59:25.172Z,100440.09
2022-08-14T03:02:55.897Z,100439.50
2022-08-14T03:05:56.009Z,100434.66
2022-08-14T03:08:59.182Z,100434.94
2022-08-14T03:12:04.983Z,100434.50
2022-08-14T03:15:15.910Z,100436.03
2022-08-14T03:18:19.086Z,100437.84
2022-08-14T03:21:34.456Z,100430.47
2022-08-14T03:24:37.408Z,100427.75
2022-08-14T03:27:48.577Z,100428.00
2022-08-14T03:31:02.986Z,100430.88
2022-08-14T03:34:05.544Z,100417.94
2022-08-14T03:37:50.798Z,100414.47
2022-08-14T03:40:35.305Z,100415.31
2022-08-14T03:43:38.022Z,100414.75
2022-08-14T03:46:54.619Z,100413.78
2022-08-14T03:49:58.586Z,100423.25
2022-08-14T03:53:02.422Z,100423.44
2022-08-14T03:56:06.050Z,100428.81
2022-08-14T03:59:17.994Z,100430.97
2022-08-14T04:02:33.080Z,100432.53
2022-08-14T04:05:43.440Z,100426.47
2022-08-14T04:08:52.329Z,100431.06
2022-08-14T04:11:56.145Z,100426.84
2022-08-14T04:15:00.815Z,100422.31
2022-08-14T04:18:08.464Z,100431.00
2022-08-14T04:21:16.143Z,100425.38
2022-08-14T04:24:19.002Z,100426.25
2022-08-14T04:27:23.248Z,100432.66
2022-08-14T04:30:30.846Z,100431.13
2022-08-14T04:33:37.213Z,100432.75
2022-08-14T04:36:59.846Z,100432.75
2022-08-14T04:40:19.739Z,100426.38
2022-08-14T04:43:38.576Z,100414.16
2022-08-14T04:47:01.827Z,100416.69
2022-08-14T04:50:05.879Z,100415.28
2022-08-14T04:53:08.323Z,100413.88
2022-08-14T04:56:30.616Z,100409.19
2022-08-14T04:59:37.126Z,100404.94
2022-08-14T05:02:45.505Z,100405.38
2022-08-14T05:05:51.485Z,100409.47
2022-08-14T05:09:00.070Z,100403.25
2022-08-14T05:13:11.638Z,100403.69
2022-08-14T05:15:32.116Z,100403.94
2022-08-14T05:19:18.938Z,100405.09
2022-08-14T05:22:15.821Z,100406.56
2022-08-14T05:25:20.611Z,100406.91
2022-08-14T05:28:25.433Z,100403.50
2022-08-14T05:31:39.391Z,100402.50
2022-08-14T05:34:45.876Z,100394.41
2022-08-14T05:37:50.103Z,100401.09
2022-08-14T05:40:52.807Z,100398.59
2022-08-14T05:43:55.335Z,100397.84
2022-08-14T05:46:57.816Z,100395.78
2022-08-14T05:50:00.312Z,100398.44
2022-08-14T05:53:04.081Z,100395.44
2022-08-14T05:56:07.331Z,100397.03
2022-08-14T05:59:10.478Z,100407.91
2022-08-14T06:02:13.324Z,100389.28
2022-08-14T06:05:23.372Z,100380.16
2022-08-14T06:08:41.154Z,100375.31
2022-08-14T06:11:44.016Z,100377.16
2022-08-14T06:14:52.214Z,100384.41
2022-08-14T06:17:59.166Z,100387.34
2022-08-14T06:21:02.573Z,100391.88
2022-08-14T06:24:10.328Z,100378.50
2022-08-14T06:27:20.423Z,100388.44
2022-08-14T06:30:30.395Z,100390.94
2022-08-14T06:35:09.354Z,100389.94
2022-08-14T06:37:11.527Z,100388.09
2022-08-14T06:40:27.017Z,100381.47
2022-08-14T06:43:32.497Z,100380.56
2022-08-14T06:46:37.289Z,100368.94
2022-08-14T06:49:45.025Z,100371.63
2022-08-14T06:52:51.197Z,100385.84
2022-08-14T06:56:00.594Z,100385.47
2022-08-14T06:59:05.246Z,100387.25
2022-08-14T07:02:28.773Z,100393.34
2022-08-14T07:05:55.217Z,100390.91
2022-08-14T07:09:00.167Z,100389.31
2022-08-14T07:12:05.139Z,100392.94
2022-08-14T07:15:08.893Z,100387.31
2022-08-14T07:18:12.138Z,100386.88
2022-08-14T07:21:15.942Z,100383.94
2022-08-14T07:24:22.076Z,100379.34
2022-08-14T07:27:33.496Z,100382.09
2022-08-14T07:30:41.971Z,100381.81
2022-08-14T07:33:53.829Z,100382.28
2022-08-14T07:37:00.675Z,100373.28
2022-08-14T07:40:06.514Z,100376.00
2022-08-14T07:43:14.772Z,100367.38
2022-08-14T07:46:21.138Z,100366.53
2022-08-14T07:49:32.402Z,100371.59
2022-08-14T07:52:35.375Z,100363.38
2022-08-14T07:55:38.587Z,100356.59
2022-08-14T07:58:51.299Z,100364.53
2022-08-14T08:01:58.549Z,100358.84
2022-08-14T08:05:01.627Z,100356.41
2022-08-14T08:08:05.553Z,100354.47
2022-08-14T08:11:14.895Z,100351.03
2022-08-14T08:14:19.074Z,100353.38
2022-08-14T08:17:22.956Z,100361.50
2022-08-14T08:20:27.771Z,100365.06
2022-08-14T08:23:36.452Z,100362.00
2022-08-14T08:26:42.682Z,100360.09
2022-08-14T08:29:50.681Z,100352.13
2022-08-14T08:32:56.336Z,100351.00
2022-08-14T08:35:59.969Z,100359.91
2022-08-14T08:39:16.331Z,100359.97
2022-08-14T08:42:31.728Z,100355.66
2022-08-14T08:45:56.821Z,100346.63
2022-08-14T08:52:04.201Z,100347.91
2022-08-14T08:55:07.775Z,100344.19
2022-08-14T08:58:16.462Z,100341.41
2022-08-14T09:01:30.818Z,100338.50
2022-08-14T09:04:38.139Z,100335.53
2022-08-14T09:07:48.654Z,100335.44
2022-08-14T09:10:56.278Z,100336.75
2022-08-14T09:14:00.467Z,100333.94
2022-08-14T09:17:04.280Z,100321.16
2022-08-14T09:20:07.755Z,100325.88
2022-08-14T09:23:16.875Z,100317.66
2022-08-14T09:26:20.859Z,100313.81
2022-08-14T09:29:24.230Z,100323.03
2022-08-14T09:33:08.999Z,100322.59
2022-08-14T09:36:27.507Z,100312.66
2022-08-14T09:39:43.701Z,100305.94
2022-08-14T09:42:57.073Z,100286.53
2022-08-14T09:46:02.511Z,100292.53
2022-08-14T09:49:16.201Z,100293.72
2022-08-14T09:52:33.132Z,100292.66
2022-08-14T09:55:42.331Z,100292.28
2022-08-14T09:58:47.267Z,100287.06
2022-08-14T10:01:52.447Z,100290.31
2022-08-14T10:05:06.425Z,100283.78
2022-08-14T10:08:20.598Z,100287.09
2022-08-14T10:11:35.934Z,100281.13
2022-08-14T10:14:38.415Z,100273.31
2022-08-14T10:17:41.389Z,100262.84
2022-08-14T10:20:55.287Z,100265.78
2022-08-14T10:23:57.743Z,100251.03
2022-08-14T10:27:02.991Z,100253.00
2022-08-14T10:30:14.243Z,100251.88
2022-08-14T10:33:28.653Z,100252.50
2022-08-14T10:36:41.041Z,100244.84
2022-08-14T10:40:05.497Z,100246.44
2022-08-14T10:43:23.931Z,100244.81
2022-08-14T10:47:40.423Z,100245.25
2022-08-14T10:49:58.242Z,100237.72
2022-08-14T10:53:05.483Z,100239.28
2022-08-14T10:56:21.848Z,100235.44
2022-08-14T10:59:43.389Z,100226.66
2022-08-14T11:02:54.144Z,100222.84
2022-08-14T11:05:57.951Z,100216.72
2022-08-14T11:09:12.593Z,100210.50
2022-08-14T11:12:35.133Z,100205.88
2022-08-14T11:15:42.034Z,100200.75
2022-08-14T11:18:50.793Z,100197.06
2022-08-14T11:21:59.814Z,100199.72
2022-08-14T11:25:07.733Z,100202.22
2022-08-14T11:28:10.895Z,100194.09
2022-08-14T11:31:14.220Z,100187.56
2022-08-14T11:34:32.167Z,100197.69
2022-08-14T11:37:40.282Z,100181.47
2022-08-14T11:40:47.258Z,100182.53
2022-08-14T11:43:58.457Z,100174.56
2022-08-14T11:47:07.090Z,100176.34
2022-08-14T11:50:14.494Z,100173.88
2022-08-14T11:53:41.886Z,100164.66
2022-08-14T11:56:49.833Z,100164.38
2022-08-14T12:00:02.209Z,100160.47
2022-08-14T12:03:06.114Z,100165.97
2022-08-14T12:06:28.765Z,100165.13
2022-08-14T12:09:34.592Z,100153.25
2022-08-14T12:12:39.127Z,100140.25
2022-08-14T12:15:46.268Z,100150.97
2022-08-14T12:18:50.838Z,100147.16
2022-08-14T12:21:54.899Z,100139.31
2022-08-14T12:24:57.381Z,100141.66
2022-08-14T12:28:05.648Z,100136.56
2022-08-14T12:31:16.797Z,100140.56
2022-08-14T12:34:24.322Z,100130.47
2022-08-14T12:37:32.003Z,100123.44
2022-08-14T12:40:35.221Z,100115.41
2022-08-14T12:43:51.714Z,100111.16
2022-08-14T12:47:03.867Z,100107.63
2022-08-14T12:50:10.610Z,100113.13
2022-08-14T12:53:14.460Z,100109.16
2022-08-14T12:56:32.931Z,100102.34
2022-08-14T12:59:42.937Z,100099.75
2022-08-14T13:02:50.404Z,100102.38
2022-08-14T13:06:00.392Z,100098.22
2022-08-14T13:09:11.257Z,100093.25
2022-08-14T13:12:35.106Z,100083.91
2022-08-14T13:15:45.983Z,100078.53
2022-08-14T13:18:57.466Z,100076.97
2022-08-14T13:22:09.739Z,100072.56
2022-08-14T13:25:15.823Z,100065.94
2022-08-14T13:28:32.847Z,100050.41
2022-08-14T13:31:39.469Z,100045.50
2022-08-14T13:34:45.590Z,100044.13
2022-08-14T13:37:52.108Z,100042.78
2022-08-14T13:40:56.962Z,100039.00
2022-08-14T13:44:00.582Z,100034.25
2022-08-14T13:47:06.933Z,100030.75
2022-08-14T13:50:15.578Z,100027.97
2022-08-14T13:53:33.063Z,100016.88
2022-08-14T13:56:40.413Z,100015.47
2022-08-14T13:59:46.042Z,99999.94
2022-08-14T14:02:56.321Z,99991.34
2022-08-14T14:05:59.902Z,99995.84
2022-08-14T14:09:03.907Z,99990.78
2022-08-14T14:12:38.405Z,99988.00
2022-08-14T14:15:34.082Z,99981.66
2022-08-14T14:19:06.107Z,99966.50
2022-08-14T14:22:10.594Z,99966.66
2022-08-14T14:25:38.745Z,99964.13
2022-08-14T14:28:57.673Z,99958.59
2022-08-14T14:32:02.381Z,99955.19
2022-08-14T14:35:08.762Z,99950.72
2022-08-14T14:38:17.070Z,99943.38
2022-08-14T14:41:22.237Z,99943.16
2022-08-14T14:44:27.873Z,99940.03
2022-08-14T14:47:30.744Z,99943.22
2022-08-14T14:50:35.024Z,99938.31
2022-08-14T14:53:40.861Z,99937.66
2022-08-14T14:56:47.418Z,99930.06
2022-08-14T14:59:53.848Z,99928.06
2022-08-14T15:02:59.460Z,99932.59
2022-08-14T15:06:03.939Z,99927.66
2022-08-14T15:09:09.486Z,99930.34
2022-08-14T15:12:55.238Z,99925.69
2022-08-14T15:15:43.998Z,99929.72
2022-08-14T15:18:49.233Z,99917.28
2022-08-14T15:21:54.034Z,99909.63
2022-08-14T15:24:56.495Z,99911.31
2022-08-14T15:27:59.041Z,99911.91
2022-08-14T15:31:04.302Z,99915.31
2022-08-14T15:34:43.727Z,99906.22
2022-08-14T15:37:37.179Z,99913.41
2022-08-14T15:40:51.586Z,99902.72
2022-08-14T15:43:59.991Z,99905.19
2022-08-14T15:47:06.980Z,99909.28
2022-08-14T15:50:10.098Z,99898.72
2022-08-14T15:53:14.093Z,99896.56
2022-08-14T15:56:21.485Z,99893.97
2022-08-14T16:00:01.756Z,99896.50
2022-08-14T16:03:14.311Z,99884.34
2022-08-14T16:06:21.875Z,99889.72
2022-08-14T16:09:26.990Z,99878.41
2022-08-14T16:12:41.619Z,99866.22
2022-08-14T16:15:53.391Z,99865.63
2022-08-14T16:18:58.862Z,99862.28
2022-08-14T16:22:58.908Z,99849.34
2022-08-14T16:25:34.547Z,99852.78
2022-08-14T16:28:38.176Z,99849.09
2022-08-14T16:31:42.938Z,99851.47
2022-08-14T16:34:48.463Z,99853.72
2022-08-14T16:37:55.735Z,99848.13
2022-08-14T16:44:37.741Z,99839.22
2022-08-14T16:47:43.311Z,99834.84
2022-08-14T16:50:48.697Z,99827.94
2022-08-14T16:53:51.372Z,99836.63
2022-08-14T16:56:54.799Z,99827.16
2022-08-14T17:00:00.360Z,99820.59
2022-08-14T17:03:08.413Z,99819.88
2022-08-14T17:06:30.889Z,99811.09
2022-08-14T17:09:43.342Z,99808.59
2022-08-14T17:12:46.379Z,99809.00
2022-08-14T17:16:05.362Z,99805.44
2022-08-14T17:19:17.457Z,99812.38
2022-08-14T17:22:21.934Z,99808.53
2022-08-14T17:25:32.914Z,99815.47
2022-08-14T17:28:51.416Z,99803.72
2022-08-14T17:32:01.935Z,99797.66
2022-08-14T17:35:10.243Z,99800.56
2022-08-14T17:38:38.283Z,99793.69
2022-08-14T17:41:38.655Z,99789.25
2022-08-14T17:44:48.137Z,99792.06
2022-08-14T17:47:52.351Z,99801.97
2022-08-14T17:50:59.958Z,99803.06
2022-08-14T17:54:08.465Z,99800.84
2022-08-14T17:57:14.430Z,99798.56
2022-08-14T18:00:17.744Z,99799.97
2022-08-14T18:03:49.996Z,99798.72
2022-08-14T18:07:06.036Z,99809.22
2022-08-14T18:10:51.847Z,99811.13
2022-08-14T18:13:51.051Z,99826.41
2022-08-14T18:16:57.073Z,99831.22
2022-08-14T18:20:01.374Z,99833.91
2022-08-14T18:23:18.315Z,99832.47
2022-08-14T18:26:36.788Z,99824.94
2022-08-14T18:29:44.879Z,99836.41
2022-08-14T18:33:01.181Z,99833.50
2022-08-14T18:36:49.013Z,99834.09
2022-08-14T18:39:32.392Z,99833.66
2022-08-14T18:42:47.528Z,99836.06
2022-08-14T18:46:00.597Z,99833.75
2022-08-14T18:49:16.499Z,99833.72
2022-08-14T18:52:20.773Z,99832.03
2022-08-14T18:55:53.460Z,99826.78
2022-08-14T18:58:58.824Z,99832.56
2022-08-14T19:02:42.772Z,99839.22
2022-08-14T19:06:01.434Z,99834.78
2022-08-14T19:09:08.198Z,99830.75
2022-08-14T19:12:15.171Z,99832.78
2022-08-14T19:15:25.974Z,99829.66
2022-08-14T19:18:38.332Z,99836.75
2022-08-14T19:21:43.574Z,99833.59
2022-08-14T19:24:50.175Z,99834.38
2022-08-14T19:28:31.470Z,99834.25
2022-08-14T19:31:37.339Z,99834.06
2022-08-14T19:34:52.713Z,99834.66
2022-08-14T19:37:56.977Z,99831.47
2022-08-14T19:41:02.328Z,99828.88
2022-08-14T19:44:11.525Z,99823.44
2022-08-14T19:47:14.540Z,99818.25
2022-08-14T19:50:37.886Z,99811.41
2022-08-14T19:53:50.497Z,99813.03
2022-08-14T19:57:00.367Z,99811.09
2022-08-14T20:00:27.999Z,99800.03
2022-08-14T20:04:00.089Z,99808.78
2022-08-14T20:07:04.311Z,99809.88
2022-08-14T20:11:07.095Z,99811.31
2022-08-14T20:13:36.281Z,99808.66
2022-08-14T20:16:41.354Z,99809.44
2022-08-14T20:19:45.321Z,99812.34
2022-08-14T20:22:48.141Z,99805.44
2022-08-14T20:25:56.502Z,99808.19
2022-08-14T20:29:05.170Z,99810.06
2022-08-14T20:32:14.760Z,99815.38
2022-08-14T20:35:35.614Z,99820.06
2022-08-14T20:38:38.516Z,99817.56
2022-08-14T20:41:44.148Z,99812.53
2022-08-14T20:45:17.391Z,99807.81
2022-08-14T20:48:51.054Z,99800.53
2022-08-14T20:51:58.865Z,99808.47
2022-08-14T20:55:21.520Z,99799.25
2022-08-14T20:58:43.409Z,99807.06
2022-08-14T21:01:55.277Z,99794.94
2022-08-14T21:05:00.574Z,99795.34
2022-08-14T21:08:08.270Z,99792.63
2022-08-14T21:11:28.033Z,99796.38
2022-08-14T21:14:30.995Z,99805.00
2022-08-14T21:17:38.107Z,99790.97
2022-08-14T21:20:45.889Z,99797.16
2022-08-14T21:23:55.353Z,99793.56
2022-08-14T21:27:00.354Z,99797.78
2022-08-14T21:30:09.090Z,99803.97
2022-08-14T21:33:12.974Z,99805.00
2022-08-14T21:36:21.626Z,99805.78
2022-08-14T21:39:25.050Z,99802.78
2022-08-14T21:42:28.896Z,99796.56
2022-08-14T21:45:35.391Z,99794.81
2022-08-14T21:48:44.263Z,99792.91
2022-08-14T21:51:59.889Z,99779.44
2022-08-14T21:55:12.125Z,99786.66
2022-08-14T21:58:52.300Z,99783.03
2022-08-14T22:02:01.246Z,99775.84
2022-08-14T22:05:03.713Z,99770.25
2022-08-14T22:08:07.322Z,99772.63
2022-08-14T22:11:09.782Z,99764.88
2022-08-14T22:14:25.240Z,99765.22
2022-08-14T22:17:32.398Z,99763.81
2022-08-14T22:20:38.404Z,99761.84
2022-08-14T22:23:40.936Z,99764.06
2022-08-14T22:26:44.977Z,99777.06
2022-08-14T22:29:47.611Z,99755.56
2022-08-14T22:33:00.096Z,99753.22
2022-08-14T22:36:26.133Z,99753.78
2022-08-14T22:40:50.731Z,99753.53
2022-08-14T22:42:59.879Z,99748.56
2022-08-14T22:46:03.316Z,99745.25
2022-08-14T22:50:29.398Z,99747.84
2022-08-14T22:52:42.941Z,99728.91
2022-08-14T22:55:52.506Z,99735.72
2022-08-14T22:58:57.371Z,99733.75
2022-08-14T23:02:03.948Z,99735.66
2022-08-14T23:05:07.494Z,99728.81
2022-08-14T23:09:00.325Z,99733.69
2022-08-14T23:11:37.713Z,99725.69
2022-08-14T23:14:41.291Z,99722.88
2022-08-14T23:17:43.806Z,99728.97
2022-08-14T23:20:47.471Z,99727.16
2022-08-14T23:23:55.005Z,99733.03
2022-08-14T23:26:57.909Z,99730.56
2022-08-14T23:30:00.466Z,99726.81
2022-08-14T23:33:03.764Z,99721.63
2022-08-14T23:36:31.867Z,99718.09
2022-08-14T23:39:33.217Z,99723.13
2022-08-14T23:42:40.303Z,99723.81
2022-08-14T23:45:46.107Z,99718.59
2022-08-14T23:48:48.756Z,99712.06
2022-08-14T23:51:59.674Z,99717.75
2022-08-14T23:55:18.397Z,99713.91
2022-08-14T23:58:29.318Z,99710.69
